createdAt,value
2023-05-14T00:01:18.940Z,20.10
2023-05-14T00:03:45.322Z,20.48
2023-05-14T00:06:11.885Z,20.63
2023-05-14T00:08:38.200Z,21.05
2023-05-14T00:11:04.721Z,21.67
2023-05-14T00:13:31.075Z,20.38
2023-05-14T00:15:57.447Z,20.25
2023-05-14T00:18:24.171Z,19.15
2023-05-14T00:20:54.590Z,19.88
2023-05-14T00:23:21.482Z,21.23
2023-05-14T00:25:47.936Z,20.45
2023-05-14T00:28:14.298Z,21.25
2023-05-14T00:30:40.806Z,21.75
2023-05-14T00:33:07.370Z,20.58
2023-05-14T00:35:36.613Z,19.50
2023-05-14T00:38:03.685Z,19.42
2023-05-14T00:40:30.067Z,20.70
2023-05-14T00:42:56.751Z,20.65
2023-05-14T00:45:23.166Z,21.23
2023-05-14T00:47:49.775Z,20.10
2023-05-14T00:50:16.475Z,20.85
2023-05-14T00:52:42.830Z,21.23
2023-05-14T00:55:09.545Z,18.90
2023-05-14T00:57:36.373Z,18.88
2023-05-14T01:00:04.208Z,20.50
2023-05-14T01:04:57.030Z,21.55
2023-05-14T01:07:42.039Z,20.40
2023-05-14T01:10:14.578Z,21.67
2023-05-14T01:12:59.605Z,21.17
2023-05-14T01:15:28.682Z,20.48
2023-05-14T01:17:59.128Z,21.83
2023-05-14T01:20:26.552Z,20.35
2023-05-14T01:22:53.066Z,20.98
2023-05-14T01:25:19.412Z,21.42
2023-05-14T01:28:01.022Z,20.85
2023-05-14T01:30:32.252Z,20.75
2023-05-14T01:33:00.449Z,19.85
2023-05-14T01:35:28.530Z,20.42
2023-05-14T01:37:56.662Z,21.67
2023-05-14T01:40:23.867Z,21.90
2023-05-14T01:42:51.961Z,19.65
2023-05-14T01:45:20.540Z,21.08
2023-05-14T01:47:46.950Z,20.85
2023-05-14T01:50:13.427Z,21.90
2023-05-14T01:52:39.889Z,21.77
2023-05-14T01:55:06.587Z,21.17
2023-05-14T01:57:32.981Z,20.13
2023-05-14T01:59:59.306Z,19.25
2023-05-14T02:02:25.930Z,19.20
2023-05-14T02:04:52.616Z,19.10
2023-05-14T02:07:19.036Z,22.00
2023-05-14T02:09:45.517Z,20.30
2023-05-14T02:12:11.907Z,19.73
2023-05-14T02:14:38.352Z,21.40
2023-05-14T02:17:04.802Z,21.05
2023-05-14T02:19:31.253Z,19.95
2023-05-14T02:21:58.946Z,19.25
2023-05-14T02:24:25.311Z,17.83
2023-05-14T02:26:51.710Z,19.05
2023-05-14T02:29:18.035Z,17.90
2023-05-14T02:31:44.421Z,18.75
2023-05-14T02:34:11.025Z,19.33
2023-05-14T02:36:37.367Z,18.30
2023-05-14T02:39:04.756Z,18.45
2023-05-14T02:41:31.132Z,19.02
2023-05-14T02:43:57.471Z,17.77
2023-05-14T02:46:23.927Z,17.35
2023-05-14T02:48:50.329Z,18.40
2023-05-14T02:51:16.824Z,17.23
2023-05-14T02:53:43.172Z,16.50
2023-05-14T02:56:09.560Z,18.90
2023-05-14T02:58:35.883Z,17.65
2023-05-14T03:01:02.319Z,17.70
2023-05-14T03:03:29.727Z,16.65
2023-05-14T03:05:56.909Z,17.60
2023-05-14T03:08:23.239Z,17.33
2023-05-14T03:10:49.637Z,17.23
2023-05-14T03:13:20.637Z,17.20
2023-05-14T03:15:47.434Z,16.20
2023-05-14T03:18:13.970Z,17.40
2023-05-14T03:20:42.024Z,17.95
2023-05-14T03:23:08.405Z,18.70
2023-05-14T03:25:34.885Z,18.17
2023-05-14T03:28:01.289Z,17.30
2023-05-14T03:30:27.730Z,15.98
2023-05-14T03:32:54.266Z,19.48
2023-05-14T03:35:20.661Z,17.20
2023-05-14T03:37:46.974Z,16.05
2023-05-14T03:40:13.327Z,17.15
2023-05-14T03:42:39.657Z,16.83
2023-05-14T03:45:06.629Z,17.05
2023-05-14T03:47:32.975Z,16.95
2023-05-14T03:49:59.398Z,16.65
2023-05-14T03:52:25.772Z,17.70
2023-05-14T03:54:52.103Z,16.50
2023-05-14T03:57:18.421Z,16.42
2023-05-14T03:59:44.764Z,16.15
2023-05-14T04:02:11.187Z,16.55
2023-05-14T04:04:37.668Z,16.58
2023-05-14T04:07:04.169Z,16.75
2023-05-14T04:09:30.520Z,17.30
2023-05-14T04:11:56.886Z,18.00
2023-05-14T04:14:23.224Z,20.08
2023-05-14T04:16:49.604Z,20.10
2023-05-14T04:19:16.156Z,22.30
2023-05-14T04:21:42.670Z,22.65
2023-05-14T04:24:09.016Z,35.13
2023-05-14T04:26:35.372Z,48.17
2023-05-14T04:29:03.167Z,36.65
2023-05-14T04:33:55.862Z,32.72
2023-05-14T04:36:22.187Z,58.80
2023-05-14T04:38:48.523Z,48.53
2023-05-14T04:41:14.859Z,48.38
2023-05-14T04:43:41.170Z,29.77
2023-05-14T04:46:07.547Z,46.50
2023-05-14T04:48:33.957Z,32.20
2023-05-14T04:51:00.864Z,32.58
2023-05-14T04:53:27.317Z,57.75
2023-05-14T04:55:54.101Z,23.00
2023-05-14T04:58:20.478Z,46.03
2023-05-14T05:00:46.972Z,57.22
2023-05-14T05:03:13.466Z,37.10
2023-05-14T05:05:39.845Z,48.25
2023-05-14T05:08:06.255Z,36.45
2023-05-14T05:10:32.643Z,37.63
2023-05-14T05:12:58.965Z,54.30
2023-05-14T05:15:26.563Z,103.63
2023-05-14T05:17:53.285Z,69.15
2023-05-14T05:20:19.751Z,98.97
2023-05-14T05:22:46.080Z,109.97
2023-05-14T05:25:12.945Z,133.57
2023-05-14T05:27:39.367Z,96.32
2023-05-14T05:30:06.457Z,78.93
2023-05-14T05:32:32.803Z,83.50
2023-05-14T05:34:59.229Z,83.88
2023-05-14T05:37:25.655Z,64.22
2023-05-14T05:39:52.045Z,48.92
2023-05-14T05:42:18.367Z,62.70
2023-05-14T05:44:44.802Z,75.68
2023-05-14T05:47:11.135Z,87.80
2023-05-14T05:49:37.682Z,55.08
2023-05-14T05:52:04.223Z,57.45
2023-05-14T05:54:32.177Z,39.25
2023-05-14T05:56:58.925Z,39.00
2023-05-14T05:59:25.676Z,33.85
2023-05-14T06:01:52.057Z,42.90
2023-05-14T06:04:18.460Z,33.20
2023-05-14T06:06:44.816Z,25.95
2023-05-14T06:09:11.198Z,31.85
2023-05-14T06:11:37.578Z,31.65
2023-05-14T06:14:04.602Z,29.67
2023-05-14T06:16:30.991Z,29.10
2023-05-14T06:18:57.655Z,27.33
2023-05-14T06:21:24.023Z,27.70
2023-05-14T06:23:50.416Z,21.70
2023-05-14T06:26:16.782Z,22.73
2023-05-14T06:28:43.125Z,21.35
2023-05-14T06:31:09.597Z,20.95
2023-05-14T06:33:35.981Z,21.83
2023-05-14T06:36:03.581Z,23.63
2023-05-14T06:38:30.128Z,20.98
2023-05-14T06:40:56.507Z,19.50
2023-05-14T06:43:22.888Z,22.10
2023-05-14T06:45:49.814Z,35.83
2023-05-14T06:48:18.687Z,26.43
2023-05-14T06:50:45.810Z,22.77
2023-05-14T06:53:12.206Z,19.67
2023-05-14T06:55:38.623Z,19.35
2023-05-14T06:58:08.439Z,20.10
2023-05-14T07:00:35.089Z,20.83
2023-05-14T07:03:01.445Z,20.42
2023-05-14T07:05:27.959Z,21.15
2023-05-14T07:07:54.539Z,20.00
2023-05-14T07:10:21.245Z,19.85
2023-05-14T07:12:47.893Z,19.27
2023-05-14T07:15:14.214Z,19.60
2023-05-14T07:17:40.790Z,18.88
2023-05-14T07:20:07.480Z,20.33
2023-05-14T07:22:34.167Z,19.90
2023-05-14T07:25:00.686Z,20.95
2023-05-14T07:27:27.095Z,19.75
2023-05-14T07:29:53.672Z,20.13
2023-05-14T07:32:20.112Z,20.20
2023-05-14T07:34:46.638Z,20.13
2023-05-14T07:37:12.982Z,20.30
2023-05-14T07:39:41.729Z,20.30
2023-05-14T07:42:08.129Z,19.95
2023-05-14T07:44:34.536Z,19.95
2023-05-14T07:47:01.015Z,19.90
2023-05-14T07:49:27.430Z,20.42
2023-05-14T07:51:53.787Z,20.30
2023-05-14T07:54:20.286Z,21.17
2023-05-14T07:56:46.766Z,22.33
2023-05-14T07:59:13.092Z,22.67
2023-05-14T08:01:39.685Z,22.48
2023-05-14T08:04:06.198Z,23.33
2023-05-14T08:06:32.876Z,23.80
2023-05-14T08:08:59.269Z,22.63
2023-05-14T08:11:26.228Z,24.48
2023-05-14T08:13:52.815Z,23.83
2023-05-14T08:16:19.211Z,24.98
2023-05-14T08:18:45.635Z,24.15
2023-05-14T08:21:12.051Z,24.15
2023-05-14T08:23:38.450Z,24.00
2023-05-14T08:26:04.833Z,24.15
2023-05-14T08:28:31.222Z,25.85
2023-05-14T08:30:57.588Z,26.55
2023-05-14T08:33:23.969Z,25.63
2023-05-14T08:35:53.079Z,25.33
2023-05-14T08:38:19.441Z,25.23
2023-05-14T08:40:49.617Z,23.92
2023-05-14T08:43:20.057Z,23.65
2023-05-14T08:45:46.612Z,22.40
2023-05-14T08:48:14.710Z,21.77
2023-05-14T08:50:41.376Z,21.17
2023-05-14T08:53:07.721Z,20.67
2023-05-14T08:55:34.289Z,18.63
2023-05-14T08:58:01.220Z,19.30
2023-05-14T09:00:27.817Z,19.50
2023-05-14T09:02:54.827Z,18.20
2023-05-14T09:05:22.106Z,18.17
2023-05-14T09:07:48.717Z,17.63
2023-05-14T09:10:15.986Z,16.77
2023-05-14T09:15:08.714Z,15.40
2023-05-14T09:17:35.296Z,15.90
2023-05-14T09:20:01.744Z,15.07
2023-05-14T09:22:30.140Z,15.32
2023-05-14T09:25:07.006Z,14.82
2023-05-14T09:30:06.358Z,15.43
2023-05-14T09:32:53.518Z,15.05
2023-05-14T09:35:20.777Z,15.55
2023-05-14T09:37:48.666Z,14.65
2023-05-14T09:40:15.804Z,14.85
2023-05-14T09:42:42.386Z,15.65
2023-05-14T09:45:09.567Z,15.55
2023-05-14T09:47:37.086Z,15.00
2023-05-14T09:50:03.875Z,14.98
2023-05-14T09:52:30.511Z,14.50
2023-05-14T09:54:57.004Z,13.45
2023-05-14T09:57:23.356Z,13.20
2023-05-14T09:59:49.779Z,11.63
2023-05-14T10:02:18.879Z,11.45
2023-05-14T10:04:45.346Z,11.20
2023-05-14T10:07:12.774Z,10.68
2023-05-14T10:09:41.648Z,10.60
2023-05-14T10:12:08.396Z,10.30
2023-05-14T10:17:01.836Z,9.05
2023-05-14T10:19:32.533Z,8.13
2023-05-14T10:22:07.023Z,8.45
2023-05-14T10:24:34.098Z,7.88
2023-05-14T10:27:00.843Z,7.68
2023-05-14T10:29:37.343Z,7.88
2023-05-14T10:32:07.769Z,8.05
2023-05-14T10:34:38.215Z,7.35
2023-05-14T10:37:05.336Z,7.07
2023-05-14T10:39:43.908Z,8.23
2023-05-14T10:42:35.379Z,6.97
2023-05-14T10:45:05.750Z,6.65
2023-05-14T10:47:32.237Z,7.13
2023-05-14T10:49:59.542Z,5.88
2023-05-14T10:52:26.339Z,5.40
2023-05-14T10:54:56.730Z,5.60
2023-05-14T10:57:24.277Z,6.20
2023-05-14T11:03:18.780Z,5.82
2023-05-14T11:08:11.855Z,5.22
2023-05-14T11:10:39.372Z,5.63
2023-05-14T11:13:06.042Z,5.80
2023-05-14T11:15:32.426Z,4.47
2023-05-14T11:17:58.873Z,4.45
2023-05-14T11:20:26.056Z,4.65
2023-05-14T11:22:52.562Z,5.55
2023-05-14T11:25:19.217Z,5.88
2023-05-14T11:27:46.937Z,6.20
2023-05-14T11:30:13.424Z,5.72
2023-05-14T11:32:40.552Z,5.90
2023-05-14T11:35:07.198Z,6.95
2023-05-14T11:37:33.525Z,5.40
2023-05-14T11:40:00.495Z,5.28
2023-05-14T11:44:54.142Z,4.18
2023-05-14T11:47:21.597Z,4.07
2023-05-14T11:49:48.586Z,3.65
2023-05-14T11:52:15.507Z,2.85
2023-05-14T11:57:12.599Z,3.15
2023-05-14T11:59:39.314Z,2.60
2023-05-14T12:02:08.369Z,2.35
2023-05-14T12:04:34.905Z,2.20
2023-05-14T12:07:07.156Z,3.97
2023-05-14T12:09:35.947Z,5.78
2023-05-14T12:12:07.757Z,0.85
2023-05-14T12:14:37.030Z,1.88
2023-05-14T12:17:03.411Z,1.52
2023-05-14T12:19:30.277Z,1.05
2023-05-14T12:22:00.941Z,0.88
2023-05-14T12:24:27.263Z,1.00
2023-05-14T12:26:55.439Z,1.35
2023-05-14T12:29:22.112Z,1.92
2023-05-14T12:36:41.574Z,1.75
2023-05-14T12:39:08.272Z,1.75
2023-05-14T12:48:54.189Z,2.28
2023-05-14T12:51:20.580Z,1.90
2023-05-14T12:53:46.930Z,1.63
2023-05-14T12:56:13.476Z,2.33
2023-05-14T12:58:40.057Z,1.60
2023-05-14T13:01:06.822Z,0.93
2023-05-14T13:03:33.220Z,1.05
2023-05-14T13:05:59.626Z,0.93
2023-05-14T13:08:26.302Z,0.85
2023-05-14T13:10:53.132Z,0.50
2023-05-14T13:13:19.706Z,0.75
2023-05-14T13:15:46.807Z,1.13
2023-05-14T13:18:13.556Z,1.30
2023-05-14T13:20:42.401Z,1.00
2023-05-14T13:23:09.534Z,0.50
2023-05-14T13:25:35.967Z,0.73
2023-05-14T13:28:02.345Z,0.63
2023-05-14T13:30:28.739Z,0.40
2023-05-14T13:32:55.106Z,1.35
2023-05-14T13:35:21.609Z,2.15
2023-05-14T13:37:48.163Z,1.40
2023-05-14T13:40:14.498Z,0.55
2023-05-14T13:42:40.894Z,0.82
2023-05-14T13:45:07.526Z,0.93
2023-05-14T13:47:34.008Z,0.70
2023-05-14T13:50:00.387Z,0.68
2023-05-14T13:52:26.726Z,0.77
2023-05-14T13:54:53.199Z,0.30
2023-05-14T13:57:19.741Z,1.38
2023-05-14T13:59:46.396Z,1.33
2023-05-14T14:02:12.760Z,0.40
2023-05-14T14:04:39.104Z,0.73
2023-05-14T14:07:05.440Z,0.95
2023-05-14T14:10:11.437Z,0.77
2023-05-14T14:12:37.878Z,1.27
2023-05-14T14:15:05.391Z,1.30
2023-05-14T14:17:31.783Z,1.30
2023-05-14T14:19:58.103Z,1.00
2023-05-14T14:22:27.222Z,0.98
2023-05-14T14:24:55.389Z,0.85
2023-05-14T14:27:22.388Z,0.57
2023-05-14T14:29:48.748Z,1.60
2023-05-14T14:32:15.227Z,1.33
2023-05-14T14:34:41.604Z,0.68
2023-05-14T14:37:08.065Z,1.00
2023-05-14T14:39:34.457Z,1.55
2023-05-14T14:42:00.924Z,0.80
2023-05-14T14:44:27.245Z,0.90
2023-05-14T14:46:53.590Z,1.50
2023-05-14T14:49:19.997Z,0.77
2023-05-14T14:51:46.939Z,1.27
2023-05-14T14:56:39.565Z,2.65
2023-05-14T14:59:05.994Z,1.10
2023-05-14T15:01:32.478Z,1.27
2023-05-14T15:03:58.851Z,0.75
2023-05-14T15:06:25.185Z,1.27
2023-05-14T15:08:51.522Z,0.50
2023-05-14T15:11:17.944Z,1.35
2023-05-14T15:13:44.400Z,3.13
2023-05-14T15:16:11.254Z,1.60
2023-05-14T15:18:37.745Z,1.02
2023-05-14T15:21:04.339Z,1.30
2023-05-14T15:23:30.732Z,1.38
2023-05-14T15:25:57.044Z,2.17
2023-05-14T15:28:23.479Z,4.00
2023-05-14T15:30:49.816Z,2.92
2023-05-14T15:33:19.218Z,3.33
2023-05-14T15:35:46.093Z,2.92
2023-05-14T15:38:12.483Z,4.43
2023-05-14T15:40:38.874Z,2.05
2023-05-14T15:43:05.406Z,1.60
2023-05-14T15:45:31.804Z,2.50
2023-05-14T15:47:58.176Z,1.50
2023-05-14T15:50:25.807Z,1.73
2023-05-14T15:52:52.488Z,1.73
2023-05-14T15:55:18.942Z,3.53
2023-05-14T15:57:45.499Z,1.93
2023-05-14T16:00:12.189Z,1.77
2023-05-14T16:02:39.147Z,1.83
2023-05-14T16:05:07.340Z,2.03
2023-05-14T16:07:33.886Z,2.22
2023-05-14T16:10:00.398Z,2.70
2023-05-14T16:12:26.808Z,1.98
2023-05-14T16:14:53.236Z,5.57
2023-05-14T16:17:19.600Z,3.90
2023-05-14T16:19:45.970Z,2.33
2023-05-14T16:22:12.332Z,4.50
2023-05-14T16:24:38.681Z,2.37
2023-05-14T16:27:05.210Z,2.03
2023-05-14T16:29:31.575Z,2.67
2023-05-14T16:31:58.416Z,2.00
2023-05-14T16:34:25.123Z,2.67
2023-05-14T16:36:51.483Z,7.70
2023-05-14T16:39:18.038Z,2.28
2023-05-14T16:41:44.395Z,2.70
2023-05-14T16:44:10.917Z,3.92
2023-05-14T16:46:37.350Z,2.03
2023-05-14T16:49:03.797Z,3.27
2023-05-14T16:51:30.824Z,1.55
2023-05-14T16:53:57.136Z,3.03
2023-05-14T16:56:30.316Z,2.15
2023-05-14T16:58:56.691Z,3.40
2023-05-14T17:01:23.119Z,4.30
2023-05-14T17:03:49.691Z,3.80
2023-05-14T17:06:16.079Z,3.70
2023-05-14T17:08:42.392Z,3.50
2023-05-14T17:11:08.781Z,3.50
2023-05-14T17:13:35.621Z,3.92
2023-05-14T17:16:02.080Z,3.17
2023-05-14T17:18:28.568Z,5.32
2023-05-14T17:20:54.998Z,7.00
2023-05-14T17:23:21.407Z,4.15
2023-05-14T17:25:47.746Z,3.75
2023-05-14T17:28:14.090Z,4.32
2023-05-14T17:30:40.823Z,8.20
2023-05-14T17:33:07.375Z,12.57
2023-05-14T17:35:36.191Z,6.40
2023-05-14T17:38:03.227Z,5.38
2023-05-14T17:40:29.669Z,6.20
2023-05-14T17:42:55.989Z,10.43
2023-05-14T17:45:22.476Z,6.50
2023-05-14T17:47:49.255Z,6.50
2023-05-14T17:50:15.807Z,10.23
2023-05-14T17:52:44.151Z,4.82
2023-05-14T17:55:10.960Z,4.60
2023-05-14T17:57:37.703Z,6.70
2023-05-14T18:00:07.523Z,3.80
2023-05-14T18:02:33.985Z,4.95
2023-05-14T18:05:00.564Z,6.85
2023-05-14T18:07:26.961Z,4.53
2023-05-14T18:09:53.280Z,5.53
2023-05-14T18:12:19.611Z,6.78
2023-05-14T18:14:45.960Z,4.88
2023-05-14T18:17:12.336Z,4.53
2023-05-14T18:19:40.879Z,4.80
2023-05-14T18:22:07.316Z,4.85
2023-05-14T18:24:33.676Z,4.88
2023-05-14T18:27:00.034Z,9.38
2023-05-14T18:29:26.336Z,6.30
2023-05-14T18:31:52.696Z,6.68
2023-05-14T18:34:19.083Z,6.60
2023-05-14T18:36:45.458Z,6.47
2023-05-14T18:39:11.773Z,6.57
2023-05-14T18:41:38.275Z,7.25
2023-05-14T18:44:04.604Z,7.05
2023-05-14T18:46:30.986Z,7.28
2023-05-14T18:48:57.421Z,6.45
2023-05-14T18:51:23.748Z,7.85
2023-05-14T18:53:50.130Z,7.47
2023-05-14T18:56:16.559Z,9.77
2023-05-14T18:58:42.871Z,7.28
2023-05-14T19:01:09.235Z,7.22
2023-05-14T19:03:35.826Z,8.32
2023-05-14T19:06:02.278Z,7.07
2023-05-14T19:08:28.632Z,10.77
2023-05-14T19:10:54.967Z,9.18
2023-05-14T19:13:21.315Z,8.57
2023-05-14T19:15:47.709Z,6.90
2023-05-14T19:18:14.149Z,7.25
2023-05-14T19:20:40.482Z,6.80
2023-05-14T19:23:06.816Z,6.45
2023-05-14T19:25:34.004Z,6.63
2023-05-14T19:28:01.724Z,6.03
2023-05-14T19:30:28.058Z,6.65
2023-05-14T19:32:54.392Z,7.32
2023-05-14T19:35:20.849Z,5.68
2023-05-14T19:37:47.211Z,7.65
2023-05-14T19:40:13.614Z,4.97
2023-05-14T19:42:39.973Z,5.22
2023-05-14T19:45:06.474Z,5.22
2023-05-14T19:47:33.123Z,4.93
2023-05-14T19:49:59.477Z,4.75
2023-05-14T19:52:25.838Z,5.30
2023-05-14T19:54:52.196Z,4.57
2023-05-14T19:57:18.519Z,5.07
2023-05-14T19:59:45.282Z,4.90
2023-05-14T20:02:18.169Z,5.27
2023-05-14T20:04:46.056Z,4.05
2023-05-14T20:07:13.939Z,4.05
2023-05-14T20:09:40.321Z,4.35
2023-05-14T20:12:07.051Z,4.53
2023-05-14T20:14:33.425Z,4.60
2023-05-14T20:17:00.066Z,4.07
2023-05-14T20:19:27.571Z,4.80
2023-05-14T20:21:54.038Z,5.75
2023-05-14T20:24:20.402Z,5.90
2023-05-14T20:26:46.828Z,4.18
2023-05-14T20:29:14.418Z,4.30
2023-05-14T20:34:07.156Z,4.88
2023-05-14T20:36:33.465Z,5.85
2023-05-14T20:39:00.481Z,5.35
2023-05-14T20:41:26.846Z,5.57
2023-05-14T20:43:53.157Z,4.97
2023-05-14T20:46:19.600Z,5.18
2023-05-14T20:48:46.968Z,5.25
2023-05-14T20:51:13.287Z,4.82
2023-05-14T20:53:40.131Z,4.93
2023-05-14T20:56:06.637Z,4.80
2023-05-14T20:58:32.975Z,4.20
2023-05-14T21:01:00.443Z,5.53
2023-05-14T21:05:55.937Z,4.50
2023-05-14T21:08:22.416Z,4.18
2023-05-14T21:10:48.746Z,4.53
2023-05-14T21:13:15.167Z,4.28
2023-05-14T21:15:41.489Z,6.15
2023-05-14T21:18:08.028Z,4.90
2023-05-14T21:20:34.442Z,4.85
2023-05-14T21:23:00.820Z,7.30
2023-05-14T21:25:27.322Z,8.38
2023-05-14T21:27:53.812Z,8.85
2023-05-14T21:30:20.253Z,7.82
2023-05-14T21:32:46.654Z,5.00
2023-05-14T21:35:13.141Z,4.82
2023-05-14T21:37:40.440Z,4.63
2023-05-14T21:40:09.260Z,4.38
2023-05-14T21:42:36.067Z,3.10
2023-05-14T21:45:02.409Z,5.37
2023-05-14T21:47:28.867Z,3.92
2023-05-14T21:49:55.252Z,5.22
2023-05-14T21:52:21.608Z,3.65
2023-05-14T21:54:47.926Z,5.20
2023-05-14T21:57:14.258Z,3.75
2023-05-14T21:59:40.679Z,5.30
2023-05-14T22:02:07.913Z,3.72
2023-05-14T22:04:35.196Z,3.28
2023-05-14T22:07:01.819Z,3.13
2023-05-14T22:09:28.172Z,4.07
2023-05-14T22:11:54.498Z,5.35
2023-05-14T22:14:20.902Z,6.30
2023-05-14T22:16:47.276Z,4.82
2023-05-14T22:19:15.784Z,5.13
2023-05-14T22:21:42.182Z,16.92
2023-05-14T22:24:08.550Z,7.38
2023-05-14T22:26:34.932Z,9.30
2023-05-14T22:29:01.317Z,6.50
2023-05-14T22:31:27.658Z,8.70
2023-05-14T22:33:54.351Z,7.95
2023-05-14T22:36:20.744Z,6.85
2023-05-14T22:38:47.095Z,8.38
2023-05-14T22:41:13.493Z,10.50
2023-05-14T22:43:39.895Z,11.18
2023-05-14T22:46:06.725Z,8.82
2023-05-14T22:48:33.093Z,6.28
2023-05-14T22:50:59.418Z,8.20
2023-05-14T22:53:25.782Z,14.60
2023-05-14T22:55:52.218Z,14.35
2023-05-14T22:58:18.630Z,11.02
2023-05-14T23:00:44.970Z,9.23
2023-05-14T23:03:11.318Z,11.15
2023-05-14T23:05:37.726Z,10.93
2023-05-14T23:08:04.127Z,10.75
2023-05-14T23:10:30.608Z,9.57
2023-05-14T23:12:56.949Z,8.95
2023-05-14T23:15:23.595Z,9.45
2023-05-14T23:17:50.211Z,9.80
2023-05-14T23:20:16.810Z,11.13
2023-05-14T23:22:43.140Z,14.02
2023-05-14T23:25:09.518Z,13.85
2023-05-14T23:27:35.978Z,16.15
2023-05-14T23:30:03.192Z,12.45
2023-05-14T23:32:29.816Z,12.82
2023-05-14T23:34:56.206Z,14.48
2023-05-14T23:37:23.045Z,12.75
2023-05-14T23:39:49.384Z,15.07
2023-05-14T23:42:15.792Z,17.08
2023-05-14T23:44:42.121Z,15.15
2023-05-14T23:47:08.775Z,16.73
2023-05-14T23:49:35.519Z,16.63
2023-05-14T23:52:02.269Z,16.35
2023-05-14T23:54:28.649Z,16.37
2023-05-14T23:56:55.022Z,18.95
2023-05-14T23:59:22.062Z,17.95
